createdAt,value
2023-03-16T00:02:12.791Z,96309.16
2023-03-16T00:04:41.090Z,96309.16
2023-03-16T00:07:10.260Z,96302.44
2023-03-16T00:09:41.515Z,96305.38
2023-03-16T00:12:16.074Z,96306.53
2023-03-16T00:14:46.306Z,96311.94
2023-03-16T00:17:20.275Z,96306.88
2023-03-16T00:19:49.339Z,96307.19
2023-03-16T00:22:17.771Z,96309.31
2023-03-16T00:24:46.074Z,96313.06
2023-03-16T00:27:15.592Z,96308.81
2023-03-16T00:29:47.563Z,96314.34
2023-03-16T00:32:17.580Z,96312.25
2023-03-16T00:34:46.052Z,96316.81
2023-03-16T00:37:15.617Z,96312.56
2023-03-16T00:39:44.778Z,96314.50
2023-03-16T00:42:15.596Z,96310.44
2023-03-16T00:44:45.344Z,96317.63
2023-03-16T00:47:15.511Z,96321.34
2023-03-16T00:49:44.637Z,96333.41
2023-03-16T00:52:15.106Z,96331.94
2023-03-16T00:54:46.636Z,96328.66
2023-03-16T00:57:16.546Z,96331.47
2023-03-16T00:59:46.339Z,96329.31
2023-03-16T01:02:14.833Z,96328.50
2023-03-16T01:04:43.877Z,96328.81
2023-03-16T01:07:13.407Z,96337.81
2023-03-16T01:09:41.783Z,96331.91
2023-03-16T01:12:11.455Z,96330.13
2023-03-16T01:14:39.754Z,96332.22
2023-03-16T01:17:10.145Z,96333.69
2023-03-16T01:19:38.900Z,96329.59
2023-03-16T01:22:07.355Z,96327.97
2023-03-16T01:24:35.960Z,96334.16
2023-03-16T01:27:04.472Z,96325.69
2023-03-16T01:29:33.112Z,96323.41
2023-03-16T01:32:01.759Z,96330.56
2023-03-16T01:34:32.141Z,96328.09
2023-03-16T01:37:01.004Z,96324.69
2023-03-16T01:40:06.953Z,96329.41
2023-03-16T01:42:45.852Z,96333.81
2023-03-16T01:45:52.746Z,96326.97
2023-03-16T01:48:24.802Z,96321.91
2023-03-16T01:50:55.310Z,96325.97
2023-03-16T01:53:24.581Z,96327.75
2023-03-16T01:55:56.378Z,96322.34
2023-03-16T01:58:25.901Z,96327.75
2023-03-16T02:00:54.781Z,96321.72
2023-03-16T02:03:23.694Z,96317.63
2023-03-16T02:06:12.378Z,96329.03
2023-03-16T02:08:46.523Z,96315.34
2023-03-16T02:11:18.187Z,96317.94
2023-03-16T02:14:01.578Z,96317.13
2023-03-16T02:16:30.419Z,96307.50
2023-03-16T02:18:58.766Z,96313.69
2023-03-16T02:21:33.218Z,96309.47
2023-03-16T02:24:03.554Z,96305.41
2023-03-16T02:26:35.405Z,96309.94
2023-03-16T02:29:12.948Z,96318.22
2023-03-16T02:31:42.685Z,96307.31
2023-03-16T02:34:11.337Z,96318.03
2023-03-16T02:36:39.689Z,96317.06
2023-03-16T02:39:08.227Z,96318.34
2023-03-16T02:41:44.986Z,96326.16
2023-03-16T02:44:16.223Z,96324.84
2023-03-16T02:46:46.245Z,96330.06
2023-03-16T02:49:18.327Z,96327.47
2023-03-16T02:51:47.669Z,96321.06
2023-03-16T02:54:16.300Z,96312.44
2023-03-16T02:56:44.945Z,96314.06
2023-03-16T02:59:15.659Z,96315.22
2023-03-16T03:01:45.438Z,96314.44
2023-03-16T03:04:13.772Z,96312.13
2023-03-16T03:06:42.416Z,96317.63
2023-03-16T03:09:11.680Z,96317.16
2023-03-16T03:11:40.954Z,96322.34
2023-03-16T03:14:09.209Z,96328.53
2023-03-16T03:16:39.609Z,96328.00
2023-03-16T03:19:09.494Z,96328.97
2023-03-16T03:21:39.230Z,96326.53
2023-03-16T03:24:09.233Z,96324.09
2023-03-16T03:26:39.067Z,96327.00
2023-03-16T03:29:11.500Z,96319.97
2023-03-16T03:31:40.577Z,96316.69
2023-03-16T03:34:10.292Z,96319.44
2023-03-16T03:36:38.854Z,96320.56
2023-03-16T03:39:07.982Z,96321.38
2023-03-16T03:41:37.347Z,96334.53
2023-03-16T03:44:07.759Z,96335.53
2023-03-16T03:46:37.451Z,96336.50
2023-03-16T03:49:06.137Z,96345.13
2023-03-16T03:51:38.223Z,96335.53
2023-03-16T03:54:13.869Z,96342.69
2023-03-16T03:56:49.915Z,96340.09
2023-03-16T03:59:18.544Z,96334.53
2023-03-16T04:02:05.429Z,96328.53
2023-03-16T04:04:45.385Z,96322.34
2023-03-16T04:07:16.419Z,96321.38
2023-03-16T04:09:46.248Z,96323.50
2023-03-16T04:12:28.978Z,96320.41
2023-03-16T04:14:57.858Z,96318.13
2023-03-16T04:17:29.820Z,96312.91
2023-03-16T04:20:02.214Z,96311.13
2023-03-16T04:22:32.740Z,96312.75
2023-03-16T04:25:03.035Z,96309.50
2023-03-16T04:27:36.361Z,96304.94
2023-03-16T04:30:06.720Z,96308.53
2023-03-16T04:32:36.144Z,96309.50
2023-03-16T04:35:04.711Z,96302.66
2023-03-16T04:37:48.464Z,96300.22
2023-03-16T04:40:17.630Z,96298.44
2023-03-16T04:42:51.679Z,96300.06
2023-03-16T04:45:21.901Z,96302.66
2023-03-16T04:47:53.512Z,96303.31
2023-03-16T04:50:22.886Z,96295.50
2023-03-16T04:52:55.928Z,96290.81
2023-03-16T04:55:24.437Z,96304.34
2023-03-16T04:57:53.728Z,96295.06
2023-03-16T05:00:24.080Z,96297.13
2023-03-16T05:03:02.808Z,96297.81
2023-03-16T05:05:31.226Z,96297.50
2023-03-16T05:08:01.701Z,96295.72
2023-03-16T05:10:33.234Z,96299.97
2023-03-16T05:13:01.920Z,96299.97
2023-03-16T05:15:30.543Z,96299.16
2023-03-16T05:18:25.041Z,96300.25
2023-03-16T05:20:53.944Z,96295.22
2023-03-16T05:23:24.460Z,96284.50
2023-03-16T05:26:01.268Z,96291.34
2023-03-16T05:28:32.264Z,96290.19
2023-03-16T05:31:07.556Z,96289.06
2023-03-16T05:33:44.648Z,96287.59
2023-03-16T05:36:17.659Z,96293.13
2023-03-16T05:38:50.959Z,96287.75
2023-03-16T05:41:27.653Z,96286.63
2023-03-16T05:44:01.427Z,96287.94
2023-03-16T05:46:40.375Z,96288.47
2023-03-16T05:49:09.175Z,96283.59
2023-03-16T05:51:37.646Z,96284.75
2023-03-16T05:54:09.223Z,96298.63
2023-03-16T05:56:44.954Z,96301.09
2023-03-16T05:59:13.424Z,96306.34
2023-03-16T06:01:43.261Z,96311.41
2023-03-16T06:04:11.787Z,96308.00
2023-03-16T06:06:42.915Z,96302.50
2023-03-16T06:09:22.382Z,96309.56
2023-03-16T06:11:50.693Z,96304.34
2023-03-16T06:14:19.980Z,96295.91
2023-03-16T06:16:48.738Z,96301.13
2023-03-16T06:19:17.872Z,96295.94
2023-03-16T06:21:49.280Z,96310.91
2023-03-16T06:24:19.011Z,96320.53
2023-03-16T06:26:48.732Z,96321.88
2023-03-16T06:29:18.318Z,96321.88
2023-03-16T06:31:46.820Z,96316.50
2023-03-16T06:34:16.593Z,96322.34
2023-03-16T06:36:45.121Z,96320.88
2023-03-16T06:39:15.849Z,96323.63
2023-03-16T06:41:50.925Z,96318.53
2023-03-16T06:44:19.658Z,96319.81
2023-03-16T06:46:58.055Z,96326.97
2023-03-16T06:49:26.682Z,96330.31
2023-03-16T06:51:55.198Z,96333.88
2023-03-16T06:54:25.585Z,96331.53
2023-03-16T06:56:55.584Z,96327.09
2023-03-16T06:59:23.862Z,96340.44
2023-03-16T07:01:52.724Z,96336.78
2023-03-16T07:04:20.960Z,96333.78
2023-03-16T07:06:49.310Z,96332.81
2023-03-16T07:09:17.975Z,96325.84
2023-03-16T07:11:46.270Z,96332.47
2023-03-16T07:14:16.637Z,96315.44
2023-03-16T07:16:45.810Z,96322.97
2023-03-16T07:19:14.252Z,96334.00
2023-03-16T07:21:42.533Z,96327.69
2023-03-16T07:24:15.709Z,96328.25
2023-03-16T07:26:44.003Z,96332.41
2023-03-16T07:29:17.291Z,96330.16
2023-03-16T07:31:46.441Z,96332.31
2023-03-16T07:34:20.021Z,96330.59
2023-03-16T07:36:53.870Z,96323.59
2023-03-16T07:39:25.009Z,96328.31
2023-03-16T07:41:59.597Z,96329.84
2023-03-16T07:44:44.094Z,96326.94
2023-03-16T07:47:14.198Z,96327.06
2023-03-16T07:49:44.372Z,96317.25
2023-03-16T07:52:13.744Z,96325.81
2023-03-16T07:54:43.542Z,96325.28
2023-03-16T07:57:13.587Z,96327.97
2023-03-16T07:59:45.692Z,96322.84
2023-03-16T08:02:17.801Z,96320.91
2023-03-16T08:04:47.370Z,96321.41
2023-03-16T08:07:16.786Z,96318.81
2023-03-16T08:09:54.613Z,96321.53
2023-03-16T08:12:33.846Z,96320.38
2023-03-16T08:15:05.980Z,96313.41
2023-03-16T08:17:34.849Z,96310.84
2023-03-16T08:20:10.333Z,96313.31
2023-03-16T08:22:38.638Z,96317.56
2023-03-16T08:25:10.511Z,96317.22
2023-03-16T08:27:41.894Z,96324.38
2023-03-16T08:30:14.335Z,96322.63
2023-03-16T08:32:46.596Z,96326.72
2023-03-16T08:35:16.832Z,96324.91
2023-03-16T08:37:47.481Z,96335.66
2023-03-16T08:40:17.501Z,96336.53
2023-03-16T08:42:50.267Z,96330.31
2023-03-16T08:45:23.522Z,96340.09
2023-03-16T08:47:51.810Z,96338.28
2023-03-16T08:50:21.037Z,96337.53
2023-03-16T08:52:51.034Z,96335.75
2023-03-16T08:55:19.477Z,96336.81
2023-03-16T08:57:48.843Z,96339.66
2023-03-16T09:00:17.991Z,96347.19
2023-03-16T09:02:48.031Z,96339.22
2023-03-16T09:05:18.350Z,96333.09
2023-03-16T09:07:48.922Z,96337.13
2023-03-16T09:10:19.852Z,96344.38
2023-03-16T09:12:48.141Z,96346.31
2023-03-16T09:15:16.399Z,96348.22
2023-03-16T09:17:45.834Z,96343.03
2023-03-16T09:20:22.701Z,96341.94
2023-03-16T09:22:54.776Z,96342.84
2023-03-16T09:25:23.038Z,96344.03
2023-03-16T09:27:51.352Z,96346.59
2023-03-16T09:30:19.970Z,96343.13
2023-03-16T09:32:49.321Z,96350.31
2023-03-16T09:35:19.648Z,96356.53
2023-03-16T09:38:04.715Z,96344.88
2023-03-16T09:40:34.128Z,96352.19
2023-03-16T09:43:24.531Z,96350.25
2023-03-16T09:45:57.027Z,96356.59
2023-03-16T09:48:25.361Z,96352.16
2023-03-16T09:50:55.848Z,96352.34
2023-03-16T09:53:26.379Z,96359.91
2023-03-16T09:55:55.351Z,96360.91
2023-03-16T09:58:24.014Z,96360.22
2023-03-16T10:00:57.618Z,96359.88
2023-03-16T10:03:38.663Z,96356.69
2023-03-16T10:06:11.644Z,96355.50
2023-03-16T10:08:42.099Z,96365.16
2023-03-16T10:11:23.780Z,96361.59
2023-03-16T10:13:53.304Z,96362.50
2023-03-16T10:16:22.727Z,96360.16
2023-03-16T10:18:52.365Z,96369.00
2023-03-16T10:21:22.003Z,96357.63
2023-03-16T10:23:50.497Z,96362.94
2023-03-16T10:26:21.231Z,96352.81
2023-03-16T10:28:49.581Z,96354.88
2023-03-16T10:31:18.281Z,96351.19
2023-03-16T10:33:46.672Z,96353.84
2023-03-16T10:36:17.173Z,96356.16
2023-03-16T10:38:49.295Z,96356.50
2023-03-16T10:41:22.740Z,96347.72
2023-03-16T10:43:51.997Z,96353.97
2023-03-16T10:46:28.817Z,96345.50
2023-03-16T10:49:01.530Z,96339.03
2023-03-16T10:51:31.059Z,96335.34
2023-03-16T10:54:10.326Z,96340.22
2023-03-16T10:56:38.563Z,96332.91
2023-03-16T10:59:17.403Z,96330.97
2023-03-16T11:01:46.702Z,96332.31
2023-03-16T11:04:18.126Z,96328.53
2023-03-16T11:06:54.231Z,96328.50
2023-03-16T11:09:26.093Z,96323.03
2023-03-16T11:11:55.634Z,96325.44
2023-03-16T11:14:26.649Z,96333.44
2023-03-16T11:17:02.366Z,96326.13
2023-03-16T11:19:32.509Z,96333.00
2023-03-16T11:22:03.602Z,96335.44
2023-03-16T11:24:37.990Z,96326.78
2023-03-16T11:27:08.944Z,96321.88
2023-03-16T11:29:45.294Z,96318.06
2023-03-16T11:32:15.376Z,96314.97
2023-03-16T11:34:44.515Z,96321.50
2023-03-16T11:37:16.081Z,96332.22
2023-03-16T11:39:49.795Z,96324.03
2023-03-16T11:42:25.237Z,96322.59
2023-03-16T11:44:57.029Z,96321.69
2023-03-16T11:47:37.216Z,96321.13
2023-03-16T11:50:12.414Z,96309.44
2023-03-16T11:52:50.121Z,96314.53
2023-03-16T11:55:36.368Z,96306.78
2023-03-16T11:58:23.477Z,96294.34
2023-03-16T12:00:53.924Z,96287.44
2023-03-16T12:03:34.044Z,96292.06
2023-03-16T12:06:13.517Z,96287.75
2023-03-16T12:09:08.480Z,96291.81
2023-03-16T12:11:41.025Z,96285.75
2023-03-16T12:14:16.594Z,96287.09
2023-03-16T12:16:49.758Z,96278.72
2023-03-16T12:19:22.019Z,96276.06
2023-03-16T12:21:54.736Z,96267.06
2023-03-16T12:24:24.480Z,96264.81
2023-03-16T12:26:54.200Z,96262.88
2023-03-16T12:29:26.448Z,96255.03
2023-03-16T12:31:56.228Z,96252.84
2023-03-16T12:34:28.033Z,96251.56
2023-03-16T12:37:08.407Z,96247.28
2023-03-16T12:40:06.296Z,96251.34
2023-03-16T12:42:42.933Z,96258.13
2023-03-16T12:45:13.851Z,96248.38
2023-03-16T12:47:45.070Z,96243.88
2023-03-16T12:50:15.433Z,96241.00
2023-03-16T12:52:43.771Z,96241.03
2023-03-16T12:55:15.136Z,96233.53
2023-03-16T12:57:45.136Z,96229.94
2023-03-16T13:00:14.742Z,96229.56
2023-03-16T13:02:44.400Z,96228.78
2023-03-16T13:05:13.605Z,96220.00
2023-03-16T13:07:47.839Z,96222.66
2023-03-16T13:10:17.241Z,96225.66
2023-03-16T13:12:47.941Z,96225.75
2023-03-16T13:15:31.703Z,96220.59
2023-03-16T13:18:22.342Z,96215.63
2023-03-16T13:20:52.473Z,96214.59
2023-03-16T13:23:23.280Z,96220.47
2023-03-16T13:26:04.221Z,96208.34
2023-03-16T13:28:34.675Z,96206.72
2023-03-16T13:31:03.112Z,96216.34
2023-03-16T13:33:32.006Z,96207.56
2023-03-16T13:36:00.852Z,96196.13
2023-03-16T13:38:30.460Z,96195.31
2023-03-16T13:40:59.978Z,96199.38
2023-03-16T13:43:31.942Z,96190.34
2023-03-16T13:46:02.274Z,96186.78
2023-03-16T13:48:30.496Z,96198.91
2023-03-16T13:50:58.870Z,96198.56
2023-03-16T13:53:29.613Z,96200.97
2023-03-16T13:56:00.178Z,96199.03
2023-03-16T13:58:33.041Z,96205.06
2023-03-16T14:01:04.952Z,96190.75
2023-03-16T14:03:36.102Z,96190.03
2023-03-16T14:06:05.013Z,96191.44
2023-03-16T14:08:33.929Z,96186.94
2023-03-16T14:11:02.258Z,96181.84
2023-03-16T14:13:36.210Z,96179.31
2023-03-16T14:16:13.216Z,96186.22
2023-03-16T14:18:42.719Z,96186.59
2023-03-16T14:21:11.693Z,96180.00
2023-03-16T14:23:41.704Z,96168.25
2023-03-16T14:26:13.799Z,96171.38
2023-03-16T14:28:42.579Z,96180.72
2023-03-16T14:31:13.235Z,96180.84
2023-03-16T14:33:46.126Z,96181.53
2023-03-16T14:36:15.015Z,96181.09
2023-03-16T14:38:43.901Z,96169.19
2023-03-16T14:41:19.398Z,96163.56
2023-03-16T14:43:49.309Z,96158.13
2023-03-16T14:46:24.437Z,96167.03
2023-03-16T14:48:52.722Z,96142.06
2023-03-16T14:51:20.993Z,96151.19
2023-03-16T14:53:49.363Z,96138.72
2023-03-16T14:56:17.920Z,96134.44
2023-03-16T14:58:46.275Z,96132.94
2023-03-16T15:01:15.584Z,96123.69
2023-03-16T15:03:45.796Z,96120.69
2023-03-16T15:06:14.113Z,96116.16
2023-03-16T15:08:44.518Z,96116.44
2023-03-16T15:11:13.042Z,96113.69
2023-03-16T15:14:03.843Z,96111.34
2023-03-16T15:16:33.018Z,96111.81
2023-03-16T15:19:02.792Z,96104.66
2023-03-16T15:21:31.592Z,96103.41
2023-03-16T15:23:59.838Z,96110.88
2023-03-16T15:26:29.146Z,96101.44
2023-03-16T15:28:58.110Z,96107.06
2023-03-16T15:31:26.832Z,96104.28
2023-03-16T15:33:55.172Z,96117.06
2023-03-16T15:36:25.078Z,96110.84
2023-03-16T15:38:54.672Z,96114.06
2023-03-16T15:41:23.265Z,96114.03
2023-03-16T15:43:52.801Z,96119.53
2023-03-16T15:46:21.855Z,96121.72
2023-03-16T15:48:50.277Z,96118.34
2023-03-16T15:51:20.761Z,96107.81
2023-03-16T15:53:51.116Z,96097.97
2023-03-16T15:56:23.748Z,96099.56
2023-03-16T15:58:52.781Z,96098.97
2023-03-16T16:01:22.992Z,96098.00
2023-03-16T16:03:51.631Z,96089.94
2023-03-16T16:06:20.012Z,96092.81
2023-03-16T16:08:48.575Z,96093.72
2023-03-16T16:11:19.235Z,96098.03
2023-03-16T16:13:47.530Z,96108.28
2023-03-16T16:16:16.816Z,96096.28
2023-03-16T16:18:45.248Z,96087.84
2023-03-16T16:21:16.994Z,96087.69
2023-03-16T16:23:45.840Z,96096.94
2023-03-16T16:26:21.790Z,96091.34
2023-03-16T16:28:50.064Z,96093.28
2023-03-16T16:31:18.414Z,96098.19
2023-03-16T16:33:47.072Z,96094.59
2023-03-16T16:36:17.724Z,96098.13
2023-03-16T16:38:46.066Z,96098.97
2023-03-16T16:41:24.381Z,96103.44
2023-03-16T16:43:53.345Z,96108.81
2023-03-16T16:46:22.498Z,96112.16
2023-03-16T16:48:51.444Z,96113.66
2023-03-16T16:51:20.716Z,96106.22
2023-03-16T16:53:49.005Z,96105.00
2023-03-16T16:56:19.794Z,96091.38
2023-03-16T16:58:48.144Z,96089.19
2023-03-16T17:01:18.085Z,96080.88
2023-03-16T17:03:46.609Z,96078.88
2023-03-16T17:06:17.420Z,96072.41
2023-03-16T17:08:45.727Z,96062.31
2023-03-16T17:11:24.428Z,96055.47
2023-03-16T17:13:52.807Z,96065.22
2023-03-16T17:16:22.775Z,96070.13
2023-03-16T17:18:51.205Z,96070.53
2023-03-16T17:21:20.940Z,96074.47
2023-03-16T17:23:49.588Z,96059.06
2023-03-16T17:26:19.244Z,96058.91
2023-03-16T17:28:50.320Z,96066.69
2023-03-16T17:31:22.273Z,96049.63
2023-03-16T17:33:51.320Z,96052.28
2023-03-16T17:36:19.703Z,96057.94
2023-03-16T17:38:47.964Z,96050.13
2023-03-16T17:41:22.100Z,96051.28
2023-03-16T17:43:52.069Z,96049.16
2023-03-16T17:46:21.740Z,96043.59
2023-03-16T17:48:50.952Z,96043.16
2023-03-16T17:51:19.360Z,96035.47
2023-03-16T17:53:47.683Z,96038.47
2023-03-16T17:56:19.539Z,96035.47
2023-03-16T17:58:48.290Z,96026.13
2023-03-16T18:01:18.052Z,96027.22
2023-03-16T18:03:46.370Z,96037.81
2023-03-16T18:06:20.582Z,96038.63
2023-03-16T18:08:49.231Z,96042.53
2023-03-16T18:11:19.115Z,96032.44
2023-03-16T18:13:47.423Z,96033.06
2023-03-16T18:16:20.019Z,96041.25
2023-03-16T18:18:48.614Z,96046.78
2023-03-16T18:21:20.584Z,96040.50
2023-03-16T18:23:49.392Z,96043.97
2023-03-16T18:26:18.464Z,96039.69
2023-03-16T18:28:46.801Z,96033.66
2023-03-16T18:31:22.591Z,96028.22
2023-03-16T18:33:52.642Z,96040.34
2023-03-16T18:36:23.000Z,96034.69
2023-03-16T18:38:51.743Z,96039.19
2023-03-16T18:41:22.849Z,96031.88
2023-03-16T18:43:51.334Z,96031.06
2023-03-16T18:46:25.629Z,96024.31
2023-03-16T18:48:54.334Z,96011.91
2023-03-16T18:51:23.034Z,96012.06
2023-03-16T18:53:51.889Z,96003.13
2023-03-16T18:56:21.387Z,95998.66
2023-03-16T18:58:49.736Z,95990.13
2023-03-16T19:01:25.354Z,95995.00
2023-03-16T19:03:53.690Z,95998.25
2023-03-16T19:06:27.405Z,95993.13
2023-03-16T19:08:56.047Z,95995.94
2023-03-16T19:11:24.327Z,95999.75
2023-03-16T19:13:54.695Z,95992.09
2023-03-16T19:16:24.607Z,95996.16
2023-03-16T19:18:52.945Z,95995.34
2023-03-16T19:21:23.009Z,96004.44
2023-03-16T19:23:55.558Z,96001.97
2023-03-16T19:26:23.998Z,95993.19
2023-03-16T19:28:52.330Z,95996.03
2023-03-16T19:31:22.266Z,95998.56
2023-03-16T19:33:52.739Z,95987.81
2023-03-16T19:36:22.902Z,95992.34
2023-03-16T19:38:51.727Z,95997.16
2023-03-16T19:41:26.996Z,95986.56
2023-03-16T19:43:56.507Z,95987.59
2023-03-16T19:46:26.024Z,95988.53
2023-03-16T19:48:55.762Z,95981.84
2023-03-16T19:51:25.480Z,95980.47
2023-03-16T19:53:53.974Z,95968.72
2023-03-16T19:56:25.567Z,95971.94
2023-03-16T19:58:55.699Z,95973.94
2023-03-16T20:01:26.455Z,95969.16
2023-03-16T20:03:56.167Z,95968.53
2023-03-16T20:06:24.701Z,95976.53
2023-03-16T20:08:53.018Z,95969.03
2023-03-16T20:11:24.021Z,95963.97
2023-03-16T20:13:53.124Z,95957.66
2023-03-16T20:16:26.741Z,95963.75
2023-03-16T20:18:57.787Z,95965.97
2023-03-16T20:21:26.694Z,95950.69
2023-03-16T20:23:54.949Z,95955.19
2023-03-16T20:26:24.418Z,95959.41
2023-03-16T20:28:53.153Z,95952.75
2023-03-16T20:31:22.389Z,95963.53
2023-03-16T20:33:52.054Z,95972.91
2023-03-16T20:36:21.982Z,95966.44
2023-03-16T20:38:50.285Z,95962.53
2023-03-16T20:41:21.909Z,95974.16
2023-03-16T20:43:50.206Z,95964.16
2023-03-16T20:46:20.593Z,95960.16
2023-03-16T20:48:48.869Z,95961.59
2023-03-16T20:51:17.213Z,95957.50
2023-03-16T20:53:47.425Z,95960.78
2023-03-16T20:56:17.558Z,95963.22
2023-03-16T20:58:47.985Z,95959.34
2023-03-16T21:01:18.388Z,95964.16
2023-03-16T21:03:47.727Z,95960.28
2023-03-16T21:06:22.355Z,95954.88
2023-03-16T21:08:53.215Z,95954.63
2023-03-16T21:11:23.929Z,95949.94
2023-03-16T21:13:52.266Z,95948.19
2023-03-16T21:16:20.936Z,95946.78
2023-03-16T21:18:49.323Z,95940.47
2023-03-16T21:21:18.120Z,95940.47
2023-03-16T21:23:46.832Z,95945.31
2023-03-16T21:26:18.690Z,95946.38
2023-03-16T21:28:49.491Z,95941.09
2023-03-16T21:31:19.749Z,95943.75
2023-03-16T21:33:49.646Z,95934.44
2023-03-16T21:36:18.775Z,95937.94
2023-03-16T21:38:47.334Z,95937.72
2023-03-16T21:41:17.766Z,95939.19
2023-03-16T21:43:46.702Z,95922.75
2023-03-16T21:46:16.236Z,95928.97
2023-03-16T21:48:44.795Z,95920.69
2023-03-16T21:51:14.683Z,95914.22
2023-03-16T21:53:43.345Z,95914.88
2023-03-16T21:56:15.499Z,95916.13
2023-03-16T21:58:45.277Z,95917.28
2023-03-16T22:01:23.172Z,95914.44
2023-03-16T22:03:53.247Z,95912.25
2023-03-16T22:06:21.778Z,95917.69
2023-03-16T22:08:51.322Z,95915.03
2023-03-16T22:11:21.354Z,95912.19
2023-03-16T22:13:51.248Z,95917.03
2023-03-16T22:16:20.646Z,95911.75
2023-03-16T22:18:50.104Z,95901.84
2023-03-16T22:21:28.653Z,95911.00
2023-03-16T22:23:57.150Z,95902.25
2023-03-16T22:26:25.499Z,95907.31
2023-03-16T22:28:55.188Z,95901.19
2023-03-16T22:31:27.720Z,95912.19
2023-03-16T22:33:56.079Z,95903.84
2023-03-16T22:36:24.340Z,95906.22
2023-03-16T22:38:56.579Z,95896.88
2023-03-16T22:41:24.863Z,95905.38
2023-03-16T22:43:55.412Z,95909.25
2023-03-16T22:46:24.498Z,95906.03
2023-03-16T22:48:52.942Z,95904.41
2023-03-16T22:51:23.846Z,95898.91
2023-03-16T22:53:52.420Z,95897.47
2023-03-16T22:56:21.075Z,95902.28
2023-03-16T22:58:50.017Z,95899.06
2023-03-16T23:01:20.966Z,95894.22
2023-03-16T23:03:49.841Z,95893.19
2023-03-16T23:06:18.694Z,95898.91
2023-03-16T23:08:47.778Z,95897.50
2023-03-16T23:11:23.822Z,95887.59
2023-03-16T23:13:53.591Z,95890.03
2023-03-16T23:16:24.377Z,95875.81
2023-03-16T23:18:53.386Z,95877.84
2023-03-16T23:21:22.800Z,95872.63
2023-03-16T23:24:03.010Z,95865.06
2023-03-16T23:26:32.858Z,95862.44
2023-03-16T23:29:01.241Z,95859.06
2023-03-16T23:31:30.983Z,95869.63
2023-03-16T23:33:59.253Z,95856.56
2023-03-16T23:36:27.929Z,95862.66
2023-03-16T23:38:56.237Z,95854.78
2023-03-16T23:41:25.104Z,95858.63
2023-03-16T23:43:53.388Z,95853.34
2023-03-16T23:46:22.546Z,95844.03
2023-03-16T23:48:52.446Z,95851.22
2023-03-16T23:51:22.457Z,95849.00
2023-03-16T23:53:50.756Z,95844.34
2023-03-16T23:56:19.159Z,95845.94
2023-03-16T23:58:47.390Z,95841.00
